sensor_id;sensor_type;location;lat;lon;timestamp;pressure;altitude;pressure_sealevel;temperature;humidity
28456;BME280;15682;56.742;38.866;2023-11-21T00:01:45;99070.0;;;-7.8;92.0
28456;BME280;15682;56.742;38.866;2023-11-21T00:03:44;99070.0;;;-7.7;92.0
28456;BME280;15682;56.742;38.866;2023-11-21T00:05:44;99050.0;;;-7.7;92.5
28456;BME280;15682;56.742;38.866;2023-11-21T00:07:44;99050.0;;;-7.7;92.4
28456;BME280;15682;56.742;38.866;2023-11-21T00:09:44;99050.0;;;-7.7;92.4
28456;BME280;15682;56.742;38.866;2023-11-21T00:11:44;99050.0;;;-7.6;92.4
28456;BME280;15682;56.742;38.866;2023-11-21T00:13:44;99050.0;;;-7.6;92.4
28456;BME280;15682;56.742;38.866;2023-11-21T00:15:43;99050.0;;;-7.6;92.4
28456;BME280;15682;56.742;38.866;2023-11-21T00:17:43;99050.0;;;-7.6;92.5
28456;BME280;15682;56.742;38.866;2023-11-21T00:19:43;99050.0;;;-7.6;92.5
28456;BME280;15682;56.742;38.866;2023-11-21T00:21:43;99050.0;;;-7.6;92.5
28456;BME280;15682;56.742;38.866;2023-11-21T00:23:42;99050.0;;;-7.8;92.5
28456;BME280;15682;56.742;38.866;2023-11-21T00:25:42;99050.0;;;-7.8;92.5
28456;BME280;15682;56.742;38.866;2023-11-21T00:27:42;99050.0;;;-7.8;93.1
28456;BME280;15682;56.742;38.866;2023-11-21T00:29:41;99050.0;;;-7.8;92.6
28456;BME280;15682;56.742;38.866;2023-11-21T00:31:41;99050.0;;;-7.8;92.6
28456;BME280;15682;56.742;38.866;2023-11-21T00:33:41;99060.0;;;-7.7;92.6
28456;BME280;15682;56.742;38.866;2023-11-21T00:35:41;99060.0;;;-7.7;92.6
28456;BME280;15682;56.742;38.866;2023-11-21T00:37:41;99060.0;;;-7.7;93.0
28456;BME280;15682;56.742;38.866;2023-11-21T00:39:40;99060.0;;;-7.7;93.0
28456;BME280;15682;56.742;38.866;2023-11-21T00:41:40;99060.0;;;-7.7;93.0
28456;BME280;15682;56.742;38.866;2023-11-21T00:43:40;99060.0;;;-7.7;93.0
28456;BME280;15682;56.742;38.866;2023-11-21T00:45:40;99060.0;;;-7.8;93.0
28456;BME280;15682;56.742;38.866;2023-11-21T00:47:39;99060.0;;;-7.8;92.2
28456;BME280;15682;56.742;38.866;2023-11-21T00:49:39;99060.0;;;-7.7;92.2
28456;BME280;15682;56.742;38.866;2023-11-21T00:51:39;99070.0;;;-7.7;92.2
28456;BME280;15682;56.742;38.866;2023-11-21T00:53:39;99070.0;;;-7.7;92.2
28456;BME280;15682;56.742;38.866;2023-11-21T00:55:38;99070.0;;;-7.7;92.2
28456;BME280;15682;56.742;38.866;2023-11-21T00:57:38;99080.0;;;-7.7;92.3
28456;BME280;15682;56.742;38.866;2023-11-21T00:59:38;99080.0;;;-7.7;92.3
28456;BME280;15682;56.742;38.866;2023-11-21T01:01:38;99080.0;;;-7.7;92.3
28456;BME280;15682;56.742;38.866;2023-11-21T01:03:38;99080.0;;;-7.8;92.3
28456;BME280;15682;56.742;38.866;2023-11-21T01:05:37;99070.0;;;-7.8;92.3
28456;BME280;15682;56.742;38.866;2023-11-21T01:07:37;99060.0;;;-7.7;92.4
28456;BME280;15682;56.742;38.866;2023-11-21T01:09:37;99060.0;;;-7.6;92.4
28456;BME280;15682;56.742;38.866;2023-11-21T01:11:37;99060.0;;;-7.6;91.7
28456;BME280;15682;56.742;38.866;2023-11-21T01:13:37;99060.0;;;-7.6;91.7
28456;BME280;15682;56.742;38.866;2023-11-21T01:15:36;99060.0;;;-7.7;91.7
28456;BME280;15682;56.742;38.866;2023-11-21T01:17:36;99060.0;;;-7.7;91.7
28456;BME280;15682;56.742;38.866;2023-11-21T01:19:36;99060.0;;;-7.7;91.1
28456;BME280;15682;56.742;38.866;2023-11-21T01:21:36;99060.0;;;-7.9;91.1
28456;BME280;15682;56.742;38.866;2023-11-21T01:23:35;99060.0;;;-7.8;91.1
28456;BME280;15682;56.742;38.866;2023-11-21T01:25:35;99060.0;;;-7.7;91.1
28456;BME280;15682;56.742;38.866;2023-11-21T01:27:35;99060.0;;;-7.7;91.7
28456;BME280;15682;56.742;38.866;2023-11-21T01:29:35;99060.0;;;-7.7;91.7
28456;BME280;15682;56.742;38.866;2023-11-21T01:31:34;99060.0;;;-7.7;91.7
28456;BME280;15682;56.742;38.866;2023-11-21T01:33:34;99060.0;;;-7.8;91.7
28456;BME280;15682;56.742;38.866;2023-11-21T01:35:34;99060.0;;;-7.8;92.3
28456;BME280;15682;56.742;38.866;2023-11-21T01:37:34;99050.0;;;-7.8;92.1
28456;BME280;15682;56.742;38.866;2023-11-21T01:39:34;99050.0;;;-7.9;92.1
28456;BME280;15682;56.742;38.866;2023-11-21T01:41:33;99050.0;;;-7.8;92.1
28456;BME280;15682;56.742;38.866;2023-11-21T01:43:33;99030.0;;;-7.8;92.1
28456;BME280;15682;56.742;38.866;2023-11-21T01:45:33;99030.0;;;-7.9;92.1
28456;BME280;15682;56.742;38.866;2023-11-21T01:47:33;99030.0;;;-7.9;92.6
28456;BME280;15682;56.742;38.866;2023-11-21T01:49:33;99030.0;;;-7.9;92.8
28456;BME280;15682;56.742;38.866;2023-11-21T01:51:32;99030.0;;;-7.9;92.8
28456;BME280;15682;56.742;38.866;2023-11-21T01:53:32;99030.0;;;-7.9;92.8
28456;BME280;15682;56.742;38.866;2023-11-21T01:55:33;99030.0;;;-7.9;92.8
28456;BME280;15682;56.742;38.866;2023-11-21T01:57:32;99040.0;;;-7.9;92.8
28456;BME280;15682;56.742;38.866;2023-11-21T01:59:34;99040.0;;;-7.9;92.8
28456;BME280;15682;56.742;38.866;2023-11-21T02:01:31;99040.0;;;-8.0;92.8
28456;BME280;15682;56.742;38.866;2023-11-21T02:03:31;99040.0;;;-7.9;93.4
28456;BME280;15682;56.742;38.866;2023-11-21T02:05:31;99050.0;;;-7.9;93.4
28456;BME280;15682;56.742;38.866;2023-11-21T02:07:30;99050.0;;;-7.9;93.4
28456;BME280;15682;56.742;38.866;2023-11-21T02:09:30;99050.0;;;-7.9;92.9
28456;BME280;15682;56.742;38.866;2023-11-21T02:11:30;99050.0;;;-7.9;92.9
28456;BME280;15682;56.742;38.866;2023-11-21T02:13:30;99050.0;;;-8.0;92.4
28456;BME280;15682;56.742;38.866;2023-11-21T02:15:29;99050.0;;;-7.9;92.4
28456;BME280;15682;56.742;38.866;2023-11-21T02:17:29;99050.0;;;-7.9;91.1
28456;BME280;15682;56.742;38.866;2023-11-21T02:19:29;99050.0;;;-7.9;90.6
28456;BME280;15682;56.742;38.866;2023-11-21T02:21:29;99050.0;;;-8.0;90.0
28456;BME280;15682;56.742;38.866;2023-11-21T02:23:28;99050.0;;;-8.0;90.0
28456;BME280;15682;56.742;38.866;2023-11-21T02:25:29;99050.0;;;-7.9;90.5
28456;BME280;15682;56.742;38.866;2023-11-21T02:27:28;99050.0;;;-7.9;90.7
28456;BME280;15682;56.742;38.866;2023-11-21T02:29:28;99050.0;;;-7.9;89.5
28456;BME280;15682;56.742;38.866;2023-11-21T02:31:27;99050.0;;;-8.0;90.3
28456;BME280;15682;56.742;38.866;2023-11-21T02:33:27;99050.0;;;-8.0;90.3
28456;BME280;15682;56.742;38.866;2023-11-21T02:35:27;99050.0;;;-7.9;90.3
28456;BME280;15682;56.742;38.866;2023-11-21T02:37:27;99050.0;;;-7.9;90.5
28456;BME280;15682;56.742;38.866;2023-11-21T02:39:26;99050.0;;;-7.9;90.3
28456;BME280;15682;56.742;38.866;2023-11-21T02:41:26;99050.0;;;-7.9;91.2
28456;BME280;15682;56.742;38.866;2023-11-21T02:43:26;99060.0;;;-8.0;91.2
28456;BME280;15682;56.742;38.866;2023-11-21T02:45:26;99060.0;;;-8.0;91.8
28456;BME280;15682;56.742;38.866;2023-11-21T02:47:26;99060.0;;;-8.2;92.5
28456;BME280;15682;56.742;38.866;2023-11-21T02:49:25;99060.0;;;-8.2;92.7
28456;BME280;15682;56.742;38.866;2023-11-21T02:51:25;99060.0;;;-8.2;92.7
28456;BME280;15682;56.742;38.866;2023-11-21T02:53:25;99060.0;;;-8.2;92.7
28456;BME280;15682;56.742;38.866;2023-11-21T02:55:25;99060.0;;;-8.2;93.2
28456;BME280;15682;56.742;38.866;2023-11-21T02:57:24;99060.0;;;-8.2;92.7
28456;BME280;15682;56.742;38.866;2023-11-21T02:59:24;99060.0;;;-8.2;93.5
28456;BME280;15682;56.742;38.866;2023-11-21T03:01:24;99060.0;;;-8.2;93.5
28456;BME280;15682;56.742;38.866;2023-11-21T03:03:24;99060.0;;;-8.1;93.5
28456;BME280;15682;56.742;38.866;2023-11-21T03:05:23;99060.0;;;-8.1;93.5
28456;BME280;15682;56.742;38.866;2023-11-21T03:07:23;99060.0;;;-8.1;93.5
28456;BME280;15682;56.742;38.866;2023-11-21T03:09:23;99060.0;;;-8.1;94.2
28456;BME280;15682;56.742;38.866;2023-11-21T03:11:23;99060.0;;;-8.1;94.8
28456;BME280;15682;56.742;38.866;2023-11-21T03:13:22;99060.0;;;-8.2;94.3
28456;BME280;15682;56.742;38.866;2023-11-21T03:15:22;99060.0;;;-8.3;94.3
28456;BME280;15682;56.742;38.866;2023-11-21T03:17:22;99060.0;;;-8.3;94.1
28456;BME280;15682;56.742;38.866;2023-11-21T03:19:22;99060.0;;;-8.2;93.7
28456;BME280;15682;56.742;38.866;2023-11-21T03:21:21;99060.0;;;-8.3;93.7
28456;BME280;15682;56.742;38.866;2023-11-21T03:23:21;99060.0;;;-8.4;94.2
28456;BME280;15682;56.742;38.866;2023-11-21T03:25:21;99060.0;;;-8.4;94.2
28456;BME280;15682;56.742;38.866;2023-11-21T03:27:21;99060.0;;;-8.4;94.2
28456;BME280;15682;56.742;38.866;2023-11-21T03:29:20;99060.0;;;-8.4;94.2
28456;BME280;15682;56.742;38.866;2023-11-21T03:31:20;99060.0;;;-8.4;93.0
28456;BME280;15682;56.742;38.866;2023-11-21T03:33:20;99060.0;;;-8.4;93.7
28456;BME280;15682;56.742;38.866;2023-11-21T03:35:20;99070.0;;;-8.4;93.7
28456;BME280;15682;56.742;38.866;2023-11-21T03:37:19;99080.0;;;-8.4;93.1
28456;BME280;15682;56.742;38.866;2023-11-21T03:39:19;99080.0;;;-8.4;92.6
28456;BME280;15682;56.742;38.866;2023-11-21T03:41:19;99080.0;;;-8.4;92.6
28456;BME280;15682;56.742;38.866;2023-11-21T03:43:19;99080.0;;;-8.5;93.7
28456;BME280;15682;56.742;38.866;2023-11-21T03:45:18;99080.0;;;-8.5;93.2
28456;BME280;15682;56.742;38.866;2023-11-21T03:47:18;99080.0;;;-8.3;93.1
28456;BME280;15682;56.742;38.866;2023-11-21T03:49:18;99080.0;;;-8.3;93.1
28456;BME280;15682;56.742;38.866;2023-11-21T03:51:18;99080.0;;;-8.3;93.1
28456;BME280;15682;56.742;38.866;2023-11-21T03:53:17;99080.0;;;-8.3;93.1
28456;BME280;15682;56.742;38.866;2023-11-21T03:55:17;99080.0;;;-8.4;93.1
28456;BME280;15682;56.742;38.866;2023-11-21T03:57:17;99080.0;;;-8.4;92.8
28456;BME280;15682;56.742;38.866;2023-11-21T03:59:17;99080.0;;;-8.4;92.9
28456;BME280;15682;56.742;38.866;2023-11-21T04:01:21;99080.0;;;-8.4;93.7
28456;BME280;15682;56.742;38.866;2023-11-21T04:03:16;99080.0;;;-8.4;92.9
28456;BME280;15682;56.742;38.866;2023-11-21T04:05:16;99080.0;;;-8.4;92.4
28456;BME280;15682;56.742;38.866;2023-11-21T04:07:16;99080.0;;;-8.4;93.0
28456;BME280;15682;56.742;38.866;2023-11-21T04:09:16;99080.0;;;-8.3;93.6
28456;BME280;15682;56.742;38.866;2023-11-21T04:11:16;99080.0;;;-8.3;93.0
28456;BME280;15682;56.742;38.866;2023-11-21T04:13:15;99080.0;;;-8.4;93.6
28456;BME280;15682;56.742;38.866;2023-11-21T04:15:15;99080.0;;;-8.6;93.6
28456;BME280;15682;56.742;38.866;2023-11-21T04:17:17;99080.0;;;-8.6;93.6
28456;BME280;15682;56.742;38.866;2023-11-21T04:19:15;99080.0;;;-8.5;93.6
28456;BME280;15682;56.742;38.866;2023-11-21T04:21:14;99080.0;;;-8.5;93.6
28456;BME280;15682;56.742;38.866;2023-11-21T04:23:14;99080.0;;;-8.4;93.0
28456;BME280;15682;56.742;38.866;2023-11-21T04:25:14;99080.0;;;-8.4;94.1
28456;BME280;15682;56.742;38.866;2023-11-21T04:27:13;99080.0;;;-8.4;93.2
28456;BME280;15682;56.742;38.866;2023-11-21T04:29:13;99080.0;;;-8.4;93.8
28456;BME280;15682;56.742;38.866;2023-11-21T04:31:13;99080.0;;;-8.4;93.8
28456;BME280;15682;56.742;38.866;2023-11-21T04:33:13;99080.0;;;-8.5;93.3
28456;BME280;15682;56.742;38.866;2023-11-21T04:35:13;99080.0;;;-8.5;93.3
28456;BME280;15682;56.742;38.866;2023-11-21T04:37:12;99080.0;;;-8.5;94.0
28456;BME280;15682;56.742;38.866;2023-11-21T04:39:12;99080.0;;;-8.3;94.0
28456;BME280;15682;56.742;38.866;2023-11-21T04:41:12;99080.0;;;-8.3;94.0
28456;BME280;15682;56.742;38.866;2023-11-21T04:43:12;99080.0;;;-8.3;94.0
28456;BME280;15682;56.742;38.866;2023-11-21T04:45:11;99080.0;;;-8.5;94.0
28456;BME280;15682;56.742;38.866;2023-11-21T04:47:11;99080.0;;;-8.5;93.2
28456;BME280;15682;56.742;38.866;2023-11-21T04:49:11;99100.0;;;-8.5;93.7
28456;BME280;15682;56.742;38.866;2023-11-21T04:51:10;99100.0;;;-8.5;93.7
28456;BME280;15682;56.742;38.866;2023-11-21T04:53:10;99100.0;;;-8.4;93.1
28456;BME280;15682;56.742;38.866;2023-11-21T04:55:10;99100.0;;;-8.4;93.1
28456;BME280;15682;56.742;38.866;2023-11-21T04:57:10;99110.0;;;-8.4;93.9
28456;BME280;15682;56.742;38.866;2023-11-21T04:59:09;99110.0;;;-8.4;93.3
28456;BME280;15682;56.742;38.866;2023-11-21T05:01:09;99110.0;;;-8.4;93.3
28456;BME280;15682;56.742;38.866;2023-11-21T05:03:09;99110.0;;;-8.5;93.3
28456;BME280;15682;56.742;38.866;2023-11-21T05:05:09;99110.0;;;-8.5;93.3
28456;BME280;15682;56.742;38.866;2023-11-21T05:07:09;99110.0;;;-8.4;93.0
28456;BME280;15682;56.742;38.866;2023-11-21T05:09:08;99110.0;;;-8.4;93.0
28456;BME280;15682;56.742;38.866;2023-11-21T05:11:08;99110.0;;;-8.4;92.8
28456;BME280;15682;56.742;38.866;2023-11-21T05:13:08;99110.0;;;-8.4;93.5
28456;BME280;15682;56.742;38.866;2023-11-21T05:15:09;99110.0;;;-8.4;93.5
28456;BME280;15682;56.742;38.866;2023-11-21T05:17:07;99110.0;;;-8.3;92.8
28456;BME280;15682;56.742;38.866;2023-11-21T05:19:07;99120.0;;;-8.1;92.8
28456;BME280;15682;56.742;38.866;2023-11-21T05:21:07;99120.0;;;-8.3;92.8
28456;BME280;15682;56.742;38.866;2023-11-21T05:23:07;99120.0;;;-8.3;92.8
28456;BME280;15682;56.742;38.866;2023-11-21T05:25:07;99120.0;;;-8.3;92.8
28456;BME280;15682;56.742;38.866;2023-11-21T05:27:06;99120.0;;;-8.3;92.7
28456;BME280;15682;56.742;38.866;2023-11-21T05:29:06;99120.0;;;-8.3;92.7
28456;BME280;15682;56.742;38.866;2023-11-21T05:31:06;99120.0;;;-8.3;92.7
28456;BME280;15682;56.742;38.866;2023-11-21T05:33:05;99120.0;;;-8.4;92.3
28456;BME280;15682;56.742;38.866;2023-11-21T05:35:06;99120.0;;;-8.3;92.3
28456;BME280;15682;56.742;38.866;2023-11-21T05:37:05;99120.0;;;-8.3;92.9
28456;BME280;15682;56.742;38.866;2023-11-21T05:39:05;99120.0;;;-8.3;92.9
28456;BME280;15682;56.742;38.866;2023-11-21T05:41:05;99120.0;;;-8.3;92.4
28456;BME280;15682;56.742;38.866;2023-11-21T05:43:04;99130.0;;;-8.3;91.8
28456;BME280;15682;56.742;38.866;2023-11-21T05:45:05;99130.0;;;-8.4;91.8
28456;BME280;15682;56.742;38.866;2023-11-21T05:47:04;99130.0;;;-8.4;91.3
28456;BME280;15682;56.742;38.866;2023-11-21T05:49:03;99120.0;;;-8.3;92.7
28456;BME280;15682;56.742;38.866;2023-11-21T05:51:04;99120.0;;;-8.3;93.2
28456;BME280;15682;56.742;38.866;2023-11-21T05:53:03;99120.0;;;-8.4;92.2
28456;BME280;15682;56.742;38.866;2023-11-21T05:55:03;99120.0;;;-8.4;92.2
28456;BME280;15682;56.742;38.866;2023-11-21T05:57:03;99120.0;;;-8.3;92.7
28456;BME280;15682;56.742;38.866;2023-11-21T05:59:02;99120.0;;;-8.3;92.7
28456;BME280;15682;56.742;38.866;2023-11-21T06:01:05;99120.0;;;-8.3;92.0
28456;BME280;15682;56.742;38.866;2023-11-21T06:03:02;99120.0;;;-8.3;91.2
28456;BME280;15682;56.742;38.866;2023-11-21T06:05:02;99120.0;;;-8.3;91.9
28456;BME280;15682;56.742;38.866;2023-11-21T06:07:01;99120.0;;;-8.4;91.7
28456;BME280;15682;56.742;38.866;2023-11-21T06:09:01;99120.0;;;-8.4;91.1
28456;BME280;15682;56.742;38.866;2023-11-21T06:11:01;99120.0;;;-8.4;91.1
28456;BME280;15682;56.742;38.866;2023-11-21T06:13:00;99120.0;;;-8.3;91.1
28456;BME280;15682;56.742;38.866;2023-11-21T06:15:00;99120.0;;;-8.3;91.1
28456;BME280;15682;56.742;38.866;2023-11-21T06:17:00;99120.0;;;-8.3;91.7
28456;BME280;15682;56.742;38.866;2023-11-21T06:19:00;99120.0;;;-8.3;91.7
28456;BME280;15682;56.742;38.866;2023-11-21T06:20:59;99120.0;;;-8.3;91.8
28456;BME280;15682;56.742;38.866;2023-11-21T06:22:59;99130.0;;;-8.3;91.8
28456;BME280;15682;56.742;38.866;2023-11-21T06:24:59;99130.0;;;-8.4;91.8
28456;BME280;15682;56.742;38.866;2023-11-21T06:26:59;99130.0;;;-8.4;91.8
28456;BME280;15682;56.742;38.866;2023-11-21T06:28:58;99140.0;;;-8.4;91.8
28456;BME280;15682;56.742;38.866;2023-11-21T06:30:58;99140.0;;;-8.4;91.0
28456;BME280;15682;56.742;38.866;2023-11-21T06:32:58;99140.0;;;-8.3;91.1
28456;BME280;15682;56.742;38.866;2023-11-21T06:34:58;99140.0;;;-8.3;92.0
28456;BME280;15682;56.742;38.866;2023-11-21T06:36:57;99140.0;;;-8.3;91.4
28456;BME280;15682;56.742;38.866;2023-11-21T06:38:57;99140.0;;;-8.5;91.4
28456;BME280;15682;56.742;38.866;2023-11-21T06:40:58;99140.0;;;-8.4;91.4
28456;BME280;15682;56.742;38.866;2023-11-21T06:42:57;99140.0;;;-8.4;90.8
28456;BME280;15682;56.742;38.866;2023-11-21T06:44:57;99140.0;;;-8.4;90.8
28456;BME280;15682;56.742;38.866;2023-11-21T06:46:56;99140.0;;;-8.2;91.5
28456;BME280;15682;56.742;38.866;2023-11-21T06:48:56;99140.0;;;-8.2;91.5
28456;BME280;15682;56.742;38.866;2023-11-21T06:50:56;99140.0;;;-8.3;91.5
28456;BME280;15682;56.742;38.866;2023-11-21T06:52:56;99140.0;;;-8.3;91.5
28456;BME280;15682;56.742;38.866;2023-11-21T06:54:55;99140.0;;;-8.2;91.5
28456;BME280;15682;56.742;38.866;2023-11-21T06:56:55;99140.0;;;-8.2;91.9
28456;BME280;15682;56.742;38.866;2023-11-21T06:58:55;99140.0;;;-8.2;91.9
28456;BME280;15682;56.742;38.866;2023-11-21T07:00:55;99140.0;;;-8.3;90.9
28456;BME280;15682;56.742;38.866;2023-11-21T07:02:55;99150.0;;;-8.3;90.9
28456;BME280;15682;56.742;38.866;2023-11-21T07:04:54;99150.0;;;-8.3;91.4
28456;BME280;15682;56.742;38.866;2023-11-21T07:06:54;99150.0;;;-8.3;91.2
28456;BME280;15682;56.742;38.866;2023-11-21T07:08:54;99150.0;;;-8.3;91.2
28456;BME280;15682;56.742;38.866;2023-11-21T07:10:54;99150.0;;;-8.3;90.6
28456;BME280;15682;56.742;38.866;2023-11-21T07:12:53;99150.0;;;-7.9;90.6
28456;BME280;15682;56.742;38.866;2023-11-21T07:14:53;99150.0;;;-7.9;90.1
28456;BME280;15682;56.742;38.866;2023-11-21T07:16:53;99150.0;;;-7.9;90.7
28456;BME280;15682;56.742;38.866;2023-11-21T07:18:52;99150.0;;;-7.9;90.7
28456;BME280;15682;56.742;38.866;2023-11-21T07:20:52;99150.0;;;-7.9;90.7
28456;BME280;15682;56.742;38.866;2023-11-21T07:22:52;99150.0;;;-7.9;90.7
28456;BME280;15682;56.742;38.866;2023-11-21T07:24:52;99150.0;;;-7.9;90.7
28456;BME280;15682;56.742;38.866;2023-11-21T07:26:51;99150.0;;;-7.9;90.8
28456;BME280;15682;56.742;38.866;2023-11-21T07:28:51;99150.0;;;-7.9;90.2
28456;BME280;15682;56.742;38.866;2023-11-21T07:30:51;99150.0;;;-7.9;90.7
28456;BME280;15682;56.742;38.866;2023-11-21T07:32:51;99150.0;;;-8.0;90.7
28456;BME280;15682;56.742;38.866;2023-11-21T07:34:51;99150.0;;;-8.0;90.7
28456;BME280;15682;56.742;38.866;2023-11-21T07:36:50;99150.0;;;-7.9;90.1
28456;BME280;15682;56.742;38.866;2023-11-21T07:38:51;99150.0;;;-7.9;90.1
28456;BME280;15682;56.742;38.866;2023-11-21T07:40:50;99150.0;;;-7.7;90.1
28456;BME280;15682;56.742;38.866;2023-11-21T07:42:50;99150.0;;;-7.7;89.3
28456;BME280;15682;56.742;38.866;2023-11-21T07:44:49;99150.0;;;-7.8;88.4
28456;BME280;15682;56.742;38.866;2023-11-21T07:46:49;99150.0;;;-7.8;88.5
28456;BME280;15682;56.742;38.866;2023-11-21T07:48:49;99150.0;;;-7.6;89.1
28456;BME280;15682;56.742;38.866;2023-11-21T07:50:49;99150.0;;;-7.6;89.1
28456;BME280;15682;56.742;38.866;2023-11-21T07:52:49;99150.0;;;-7.6;88.0
28456;BME280;15682;56.742;38.866;2023-11-21T07:54:48;99130.0;;;-7.6;88.0
28456;BME280;15682;56.742;38.866;2023-11-21T07:56:48;99130.0;;;-7.6;88.3
28456;BME280;15682;56.742;38.866;2023-11-21T07:58:48;99130.0;;;-7.3;88.6
28456;BME280;15682;56.742;38.866;2023-11-21T08:00:49;99140.0;;;-7.3;87.8
28456;BME280;15682;56.742;38.866;2023-11-21T08:02:47;99140.0;;;-7.5;88.1
28456;BME280;15682;56.742;38.866;2023-11-21T08:04:47;99140.0;;;-7.4;87.4
28456;BME280;15682;56.742;38.866;2023-11-21T08:06:47;99140.0;;;-7.6;87.0
28456;BME280;15682;56.742;38.866;2023-11-21T08:08:47;99150.0;;;-7.6;87.0
28456;BME280;15682;56.742;38.866;2023-11-21T08:10:47;99150.0;;;-7.4;86.5
28456;BME280;15682;56.742;38.866;2023-11-21T08:12:46;99150.0;;;-7.7;87.6
28456;BME280;15682;56.742;38.866;2023-11-21T08:14:46;99150.0;;;-7.7;88.1
28456;BME280;15682;56.742;38.866;2023-11-21T08:16:46;99150.0;;;-7.6;87.8
28456;BME280;15682;56.742;38.866;2023-11-21T08:18:46;99150.0;;;-7.6;87.8
28456;BME280;15682;56.742;38.866;2023-11-21T08:20:46;99150.0;;;-7.7;87.8
28456;BME280;15682;56.742;38.866;2023-11-21T08:22:45;99150.0;;;-7.7;87.8
28456;BME280;15682;56.742;38.866;2023-11-21T08:24:45;99150.0;;;-7.5;87.8
28456;BME280;15682;56.742;38.866;2023-11-21T08:26:45;99150.0;;;-7.5;87.3
28456;BME280;15682;56.742;38.866;2023-11-21T08:28:45;99150.0;;;-7.7;87.3
28456;BME280;15682;56.742;38.866;2023-11-21T08:30:45;99150.0;;;-7.7;88.0
28456;BME280;15682;56.742;38.866;2023-11-21T08:32:44;99150.0;;;-7.7;87.3
28456;BME280;15682;56.742;38.866;2023-11-21T08:34:44;99150.0;;;-7.7;87.3
28456;BME280;15682;56.742;38.866;2023-11-21T08:36:44;99150.0;;;-7.5;88.1
28456;BME280;15682;56.742;38.866;2023-11-21T08:38:44;99150.0;;;-7.7;88.1
28456;BME280;15682;56.742;38.866;2023-11-21T08:40:43;99140.0;;;-7.7;88.6
28456;BME280;15682;56.742;38.866;2023-11-21T08:42:43;99130.0;;;-7.7;88.8
28456;BME280;15682;56.742;38.866;2023-11-21T08:44:43;99130.0;;;-7.6;88.8
28456;BME280;15682;56.742;38.866;2023-11-21T08:46:43;99130.0;;;-7.5;88.5
28456;BME280;15682;56.742;38.866;2023-11-21T08:48:42;99130.0;;;-7.9;87.2
28456;BME280;15682;56.742;38.866;2023-11-21T08:50:42;99120.0;;;-7.8;87.7
28456;BME280;15682;56.742;38.866;2023-11-21T08:52:43;99120.0;;;-7.8;87.2
28456;BME280;15682;56.742;38.866;2023-11-21T08:54:42;99120.0;;;-7.9;87.2
28456;BME280;15682;56.742;38.866;2023-11-21T08:56:43;99120.0;;;-7.6;87.9
28456;BME280;15682;56.742;38.866;2023-11-21T08:58:42;99120.0;;;-7.6;87.4
28456;BME280;15682;56.742;38.866;2023-11-21T09:00:41;99120.0;;;-7.6;87.9
28456;BME280;15682;56.742;38.866;2023-11-21T09:02:41;99120.0;;;-7.8;87.9
28456;BME280;15682;56.742;38.866;2023-11-21T09:04:41;99120.0;;;-7.7;87.9
28456;BME280;15682;56.742;38.866;2023-11-21T09:06:40;99120.0;;;-7.7;87.6
28456;BME280;15682;56.742;38.866;2023-11-21T09:08:40;99120.0;;;-7.7;87.4
28456;BME280;15682;56.742;38.866;2023-11-21T09:10:40;99130.0;;;-7.7;88.0
28456;BME280;15682;56.742;38.866;2023-11-21T09:12:40;99150.0;;;-7.6;88.0
28456;BME280;15682;56.742;38.866;2023-11-21T09:14:40;99150.0;;;-7.6;88.0
28456;BME280;15682;56.742;38.866;2023-11-21T09:16:39;99150.0;;;-7.5;87.8
28456;BME280;15682;56.742;38.866;2023-11-21T09:18:39;99150.0;;;-7.5;87.3
28456;BME280;15682;56.742;38.866;2023-11-21T09:20:39;99150.0;;;-7.4;88.3
28456;BME280;15682;56.742;38.866;2023-11-21T09:22:39;99150.0;;;-7.4;87.2
28456;BME280;15682;56.742;38.866;2023-11-21T09:24:39;99150.0;;;-7.2;87.2
28456;BME280;15682;56.742;38.866;2023-11-21T09:26:38;99150.0;;;-7.2;87.7
28456;BME280;15682;56.742;38.866;2023-11-21T09:28:38;99150.0;;;-7.4;87.7
28456;BME280;15682;56.742;38.866;2023-11-21T09:30:38;99150.0;;;-7.4;88.4
28456;BME280;15682;56.742;38.866;2023-11-21T09:32:38;99150.0;;;-7.1;89.1
28456;BME280;15682;56.742;38.866;2023-11-21T09:34:38;99150.0;;;-7.2;88.5
28456;BME280;15682;56.742;38.866;2023-11-21T09:36:37;99150.0;;;-7.4;87.5
28456;BME280;15682;56.742;38.866;2023-11-21T09:38:37;99150.0;;;-7.4;87.5
28456;BME280;15682;56.742;38.866;2023-11-21T09:40:37;99150.0;;;-7.4;87.3
28456;BME280;15682;56.742;38.866;2023-11-21T09:42:39;99150.0;;;-7.6;87.3
28456;BME280;15682;56.742;38.866;2023-11-21T09:44:45;99150.0;;;-7.6;87.3
28456;BME280;15682;56.742;38.866;2023-11-21T09:46:37;99160.0;;;-7.6;87.1
28456;BME280;15682;56.742;38.866;2023-11-21T09:48:37;99160.0;;;-7.4;87.6
28456;BME280;15682;56.742;38.866;2023-11-21T09:50:37;99160.0;;;-7.4;86.6
28456;BME280;15682;56.742;38.866;2023-11-21T09:52:46;99160.0;;;-7.7;86.6
28456;BME280;15682;56.742;38.866;2023-11-21T09:54:36;99160.0;;;-7.6;87.2
28456;BME280;15682;56.742;38.866;2023-11-21T09:56:36;99160.0;;;-7.5;87.0
28456;BME280;15682;56.742;38.866;2023-11-21T09:58:35;99160.0;;;-7.5;86.7
28456;BME280;15682;56.742;38.866;2023-11-21T10:00:35;99160.0;;;-7.5;87.4
28456;BME280;15682;56.742;38.866;2023-11-21T10:02:35;99160.0;;;-7.3;86.8
28456;BME280;15682;56.742;38.866;2023-11-21T10:04:34;99160.0;;;-7.1;87.5
28456;BME280;15682;56.742;38.866;2023-11-21T10:06:34;99160.0;;;-7.1;86.9
28456;BME280;15682;56.742;38.866;2023-11-21T10:08:35;99160.0;;;-7.1;86.9
28456;BME280;15682;56.742;38.866;2023-11-21T10:10:35;99160.0;;;-7.1;86.9
28456;BME280;15682;56.742;38.866;2023-11-21T10:12:35;99150.0;;;-7.3;87.6
28456;BME280;15682;56.742;38.866;2023-11-21T10:14:34;99150.0;;;-7.4;86.9
28456;BME280;15682;56.742;38.866;2023-11-21T10:16:33;99150.0;;;-7.3;87.6
28456;BME280;15682;56.742;38.866;2023-11-21T10:18:33;99150.0;;;-7.3;86.7
28456;BME280;15682;56.742;38.866;2023-11-21T10:20:33;99150.0;;;-7.3;87.3
28456;BME280;15682;56.742;38.866;2023-11-21T10:22:33;99150.0;;;-7.3;87.3
28456;BME280;15682;56.742;38.866;2023-11-21T10:24:32;99150.0;;;-7.2;87.3
28456;BME280;15682;56.742;38.866;2023-11-21T10:26:32;99150.0;;;-7.2;87.8
28456;BME280;15682;56.742;38.866;2023-11-21T10:28:35;99150.0;;;-7.2;87.8
28456;BME280;15682;56.742;38.866;2023-11-21T10:30:33;99150.0;;;-7.3;86.7
28456;BME280;15682;56.742;38.866;2023-11-21T10:32:31;99150.0;;;-7.3;86.7
28456;BME280;15682;56.742;38.866;2023-11-21T10:34:31;99150.0;;;-7.3;87.4
28456;BME280;15682;56.742;38.866;2023-11-21T10:36:31;99150.0;;;-7.3;87.1
28456;BME280;15682;56.742;38.866;2023-11-21T10:38:35;99150.0;;;-7.1;87.1
28456;BME280;15682;56.742;38.866;2023-11-21T10:40:31;99150.0;;;-7.1;86.8
28456;BME280;15682;56.742;38.866;2023-11-21T10:42:32;99150.0;;;-6.9;86.8
28456;BME280;15682;56.742;38.866;2023-11-21T10:44:30;99150.0;;;-7.0;86.8
28456;BME280;15682;56.742;38.866;2023-11-21T10:46:30;99150.0;;;-6.8;86.9
28456;BME280;15682;56.742;38.866;2023-11-21T10:48:32;99150.0;;;-6.8;86.9
28456;BME280;15682;56.742;38.866;2023-11-21T10:50:30;99150.0;;;-7.2;86.9
28456;BME280;15682;56.742;38.866;2023-11-21T10:52:29;99150.0;;;-7.2;87.5